createdAt,value
2019-01-02T00:00:54.650Z,0.80
2019-01-02T00:03:24.310Z,0.80
2019-01-02T00:05:54.266Z,0.80
2019-01-02T00:08:23.894Z,0.80
2019-01-02T00:10:53.582Z,0.80
2019-01-02T00:13:23.335Z,0.60
2019-01-02T00:15:53.041Z,0.50
2019-01-02T00:18:24.992Z,0.60
2019-01-02T00:20:54.643Z,0.60
2019-01-02T00:23:26.121Z,0.70
2019-01-02T00:25:59.805Z,0.60
2019-01-02T00:28:30.680Z,0.40
2019-01-02T00:31:00.375Z,0.30
2019-01-02T00:33:30.048Z,0.20
2019-01-02T00:36:00.197Z,0.00
2019-01-02T00:38:33.101Z,0.00
2019-01-02T00:41:03.723Z,0.10
2019-01-02T00:43:33.353Z,0.20
2019-01-02T00:46:03.360Z,0.30
2019-01-02T00:48:33.035Z,0.30
2019-01-02T00:51:02.665Z,0.30
2019-01-02T00:53:32.315Z,0.30
2019-01-02T00:56:02.298Z,0.20
2019-01-02T00:58:31.995Z,0.20
2019-01-02T01:01:02.016Z,0.20
2019-01-02T01:03:31.653Z,0.20
2019-01-02T01:06:01.642Z,0.10
2019-01-02T01:08:31.256Z,0.10
2019-01-02T01:11:01.316Z,0.00
2019-01-02T01:13:30.934Z,0.00
2019-01-02T01:16:00.965Z,0.00
2019-01-02T01:18:30.611Z,0.00
2019-01-02T01:21:00.683Z,0.00
2019-01-02T01:23:30.286Z,-0.10
2019-01-02T01:25:59.934Z,-0.20
2019-01-02T01:28:29.870Z,-0.20
2019-01-02T01:30:59.486Z,-0.10
2019-01-02T01:33:29.169Z,-0.10
2019-01-02T01:35:58.811Z,0.00
2019-01-02T01:38:28.468Z,0.00
2019-01-02T01:40:58.605Z,-0.10
2019-01-02T01:43:28.223Z,-0.20
2019-01-02T01:45:57.837Z,-0.30
2019-01-02T01:48:29.529Z,-0.30
2019-01-02T01:50:59.170Z,-0.30
2019-01-02T01:53:28.811Z,-0.20
2019-01-02T01:55:58.496Z,-0.30
2019-01-02T01:58:28.206Z,-0.20
2019-01-02T02:00:58.124Z,-0.20
2019-01-02T02:03:29.312Z,-0.10
2019-01-02T02:05:58.922Z,-0.10
2019-01-02T02:08:28.877Z,-0.10
2019-01-02T02:10:58.549Z,-0.20
2019-01-02T02:13:28.206Z,-0.30
2019-01-02T02:15:57.874Z,-0.40
2019-01-02T02:18:27.558Z,-0.50
2019-01-02T02:20:57.594Z,-0.50
2019-01-02T02:23:27.247Z,-0.70
2019-01-02T02:25:56.870Z,-0.80
2019-01-02T02:28:26.808Z,-0.90
2019-01-02T02:30:56.461Z,-0.90
2019-01-02T02:33:26.510Z,-0.90
2019-01-02T02:35:56.582Z,-0.80
2019-01-02T02:38:26.522Z,-0.90
2019-01-02T02:40:56.571Z,-0.80
2019-01-02T02:43:27.118Z,-0.80
2019-01-02T02:45:56.788Z,-0.80
2019-01-02T02:48:26.819Z,-0.80
2019-01-02T02:50:56.861Z,-0.70
2019-01-02T02:53:26.968Z,-0.70
2019-01-02T02:55:57.037Z,-0.80
2019-01-02T02:58:27.061Z,-1.00
2019-01-02T03:00:57.015Z,-1.00
2019-01-02T03:03:27.079Z,-0.90
2019-01-02T03:05:57.435Z,-0.90
2019-01-02T03:08:27.101Z,-0.90
2019-01-02T03:10:58.087Z,-1.00
2019-01-02T03:13:28.029Z,-0.90
2019-01-02T03:15:58.320Z,-0.90
2019-01-02T03:18:28.410Z,-0.90
2019-01-02T03:20:58.467Z,-0.80
2019-01-02T03:23:28.128Z,-0.80
2019-01-02T03:25:57.807Z,-0.80
2019-01-02T03:28:28.196Z,-0.90
2019-01-02T03:30:58.179Z,-0.90
2019-01-02T03:33:28.260Z,-0.90
2019-01-02T03:35:57.917Z,-1.00
2019-01-02T03:38:27.518Z,-1.10
2019-01-02T03:40:57.137Z,-1.10
2019-01-02T03:43:26.776Z,-1.10
2019-01-02T03:45:56.432Z,-1.00
2019-01-02T03:48:29.977Z,-1.00
2019-01-02T03:50:59.760Z,-1.00
2019-01-02T03:53:29.359Z,-1.00
2019-01-02T03:55:59.008Z,-0.90
2019-01-02T03:58:29.071Z,-0.90
2019-01-02T04:00:58.735Z,-0.80
2019-01-02T04:03:28.423Z,-0.70
2019-01-02T04:05:58.061Z,-0.60
2019-01-02T04:08:28.408Z,-0.60
2019-01-02T04:10:58.018Z,-0.60
2019-01-02T04:13:27.688Z,-0.60
2019-01-02T04:15:57.430Z,-0.60
2019-01-02T04:18:27.142Z,-0.60
2019-01-02T04:20:56.822Z,-0.60
2019-01-02T04:23:26.443Z,-0.70
2019-01-02T04:25:56.104Z,-0.80
2019-01-02T04:28:25.747Z,-0.80
2019-01-02T04:30:55.372Z,-0.70
2019-01-02T04:33:25.062Z,-0.70
2019-01-02T04:35:54.730Z,-0.70
2019-01-02T04:38:24.384Z,-0.80
2019-01-02T04:40:54.026Z,-0.80
2019-01-02T04:43:23.714Z,-0.80
2019-01-02T04:45:53.440Z,-0.70
2019-01-02T04:48:23.103Z,-0.70
2019-01-02T04:50:52.767Z,-0.70
2019-01-02T04:53:22.431Z,-0.70
2019-01-02T04:55:52.033Z,-0.80
2019-01-02T04:58:21.651Z,-0.80
2019-01-02T05:00:51.282Z,-0.70
2019-01-02T05:03:20.958Z,-0.80
2019-01-02T05:05:50.583Z,-0.80
2019-01-02T05:08:20.181Z,-0.80
2019-01-02T05:10:49.896Z,-0.70
2019-01-02T05:13:19.564Z,-0.60
2019-01-02T05:15:49.217Z,-0.60
2019-01-02T05:18:18.899Z,-0.70
2019-01-02T05:20:48.552Z,-0.80
2019-01-02T05:23:18.274Z,-0.70
2019-01-02T05:25:47.944Z,-0.70
2019-01-02T05:28:17.522Z,-0.70
2019-01-02T05:30:47.169Z,-0.70
2019-01-02T05:33:16.835Z,-0.70
2019-01-02T05:35:46.457Z,-0.60
2019-01-02T05:38:16.172Z,-0.60
2019-01-02T05:40:45.853Z,-0.60
2019-01-02T05:43:15.510Z,-0.60
2019-01-02T05:45:45.142Z,-0.60
2019-01-02T05:48:14.795Z,-0.70
2019-01-02T05:50:44.471Z,-0.80
2019-01-02T05:53:14.111Z,-0.80
2019-01-02T05:55:43.811Z,-0.70
2019-01-02T05:58:13.431Z,-0.70
2019-01-02T06:00:43.062Z,-0.60
2019-01-02T06:03:12.767Z,-0.50
2019-01-02T06:05:42.372Z,-0.50
2019-01-02T06:08:11.997Z,-0.40
2019-01-02T06:10:41.711Z,-0.40
2019-01-02T06:13:11.383Z,-0.40
2019-01-02T06:15:41.006Z,-0.40
2019-01-02T06:18:10.673Z,-0.30
2019-01-02T06:20:40.327Z,-0.30
2019-01-02T06:23:10.061Z,-0.20
2019-01-02T06:25:39.702Z,-0.10
2019-01-02T06:28:09.338Z,0.00
2019-01-02T06:30:39.188Z,0.10
2019-01-02T06:33:08.862Z,0.10
2019-01-02T06:35:38.480Z,0.10
2019-01-02T06:38:08.156Z,0.10
2019-01-02T06:40:37.820Z,0.20
2019-01-02T06:43:07.460Z,0.30
2019-01-02T06:45:37.087Z,0.30
2019-01-02T06:48:06.738Z,0.30
2019-01-02T06:50:36.410Z,0.50
2019-01-02T06:53:06.008Z,0.50
2019-01-02T06:55:35.664Z,0.80
2019-01-02T06:58:05.305Z,0.90
2019-01-02T07:00:38.006Z,1.00
2019-01-02T07:03:07.685Z,1.20
2019-01-02T07:05:37.371Z,1.20
2019-01-02T07:08:06.992Z,1.30
2019-01-02T07:10:36.660Z,1.30
2019-01-02T07:13:06.275Z,1.20
2019-01-02T07:15:35.944Z,1.30
2019-01-02T07:18:05.669Z,1.30
2019-01-02T07:20:35.300Z,1.30
2019-01-02T07:23:04.952Z,1.40
2019-01-02T07:25:34.619Z,1.40
2019-01-02T07:28:04.218Z,1.30
2019-01-02T07:30:33.891Z,1.30
2019-01-02T07:33:03.581Z,1.30
2019-01-02T07:36:06.690Z,1.20
2019-01-02T07:39:06.003Z,1.20
2019-01-02T07:42:25.169Z,1.20
2019-01-02T07:45:29.107Z,1.20
2019-01-02T07:48:29.068Z,1.20
2019-01-02T07:51:29.059Z,1.20
2019-01-02T07:54:38.431Z,1.20
2019-01-02T07:58:00.169Z,1.20
2019-01-02T08:01:15.327Z,1.20
2019-01-02T08:04:37.238Z,1.30
2019-01-02T08:07:52.920Z,1.40
2019-01-02T08:11:04.115Z,1.40
2019-01-02T08:14:09.692Z,1.50
2019-01-02T08:17:13.642Z,1.50
2019-01-02T08:20:26.957Z,1.50
2019-01-02T08:23:28.393Z,1.50
2019-01-02T08:26:51.282Z,1.50
2019-01-02T08:30:04.316Z,1.50
2019-01-02T08:33:29.802Z,1.50
2019-01-02T08:36:37.800Z,1.60
2019-01-02T08:40:02.618Z,1.50
2019-01-02T08:42:57.936Z,1.70
2019-01-02T08:46:00.293Z,1.80
2019-01-02T08:49:35.408Z,1.90
2019-01-02T08:52:56.166Z,2.00
2019-01-02T08:56:02.289Z,2.10
2019-01-02T08:59:07.808Z,2.30
2019-01-02T09:02:18.169Z,2.40
2019-01-02T09:05:21.333Z,2.70
2019-01-02T09:08:37.432Z,2.80
2019-01-02T09:11:46.808Z,3.00
2019-01-02T09:14:49.810Z,3.10
2019-01-02T09:17:48.226Z,3.30
2019-01-02T09:20:55.623Z,3.40
2019-01-02T09:24:02.263Z,3.50
2019-01-02T09:27:16.010Z,3.50
2019-01-02T09:30:32.790Z,3.50
2019-01-02T09:33:42.185Z,3.50
2019-01-02T09:36:51.528Z,3.50
2019-01-02T09:39:54.110Z,3.50
2019-01-02T09:42:57.098Z,3.50
2019-01-02T09:46:13.997Z,3.60
2019-01-02T09:49:20.798Z,3.60
2019-01-02T09:52:29.953Z,3.60
2019-01-02T09:55:43.706Z,3.60
2019-01-02T09:58:49.039Z,3.70
2019-01-02T10:02:05.965Z,3.70
2019-01-02T10:05:16.477Z,3.70
2019-01-02T10:08:09.240Z,3.70
2019-01-02T10:11:22.397Z,3.80
2019-01-02T10:14:37.619Z,3.80
2019-01-02T10:17:45.975Z,3.80
2019-01-02T10:20:58.635Z,3.90
2019-01-02T10:24:24.180Z,3.90
2019-01-02T10:27:29.594Z,3.80
2019-01-02T10:30:49.658Z,3.80
2019-01-02T10:34:05.115Z,3.90
2019-01-02T10:37:18.790Z,3.90
2019-01-02T10:40:24.892Z,4.00
2019-01-02T10:43:42.799Z,4.00
2019-01-02T10:46:38.552Z,4.00
2019-01-02T10:50:04.624Z,4.00
2019-01-02T10:53:12.214Z,4.00
2019-01-02T10:56:13.962Z,3.90
2019-01-02T10:59:16.230Z,3.90
2019-01-02T11:02:38.863Z,3.90
2019-01-02T11:05:47.673Z,3.90
2019-01-02T11:08:36.698Z,3.80
2019-01-02T11:11:56.328Z,3.80
2019-01-02T11:14:51.178Z,3.80
2019-01-02T11:17:59.202Z,3.80
2019-01-02T11:21:08.578Z,3.80
2019-01-02T11:24:11.192Z,3.70
2019-01-02T11:27:27.292Z,3.70
2019-01-02T11:30:33.651Z,3.70
2019-01-02T11:33:53.650Z,3.80
2019-01-02T11:37:12.895Z,3.70
2019-01-02T11:40:32.852Z,3.60
2019-01-02T11:43:43.399Z,3.70
2019-01-02T11:46:13.278Z,3.80
2019-01-02T11:48:43.131Z,3.80
2019-01-02T11:51:12.956Z,3.90
2019-01-02T11:53:47.213Z,3.90
2019-01-02T11:56:16.839Z,4.10
2019-01-02T11:58:49.974Z,4.10
2019-01-02T12:01:18.384Z,4.30
2019-01-02T12:03:48.038Z,4.40
2019-01-02T12:06:17.658Z,4.50
2019-01-02T12:08:47.327Z,4.50
2019-01-02T12:11:18.523Z,4.40
2019-01-02T12:13:48.179Z,4.40
2019-01-02T12:16:17.809Z,4.30
2019-01-02T12:18:47.531Z,4.20
2019-01-02T12:21:18.314Z,4.20
2019-01-02T12:23:48.018Z,4.20
2019-01-02T12:26:17.758Z,4.10
2019-01-02T12:28:49.961Z,4.00
2019-01-02T12:31:19.651Z,4.00
2019-01-02T12:33:49.411Z,4.00
2019-01-02T12:36:19.129Z,3.90
2019-01-02T12:38:48.949Z,3.90
2019-01-02T12:41:18.639Z,3.90
2019-01-02T12:43:48.479Z,3.90
2019-01-02T12:46:19.573Z,3.80
2019-01-02T12:48:50.997Z,3.80
2019-01-02T12:51:20.759Z,3.80
2019-01-02T12:53:50.791Z,3.70
2019-01-02T12:56:23.544Z,3.70
2019-01-02T12:58:53.538Z,3.70
2019-01-02T13:01:40.339Z,3.70
2019-01-02T13:04:36.632Z,3.70
2019-01-02T13:07:51.543Z,3.70
2019-01-02T13:10:43.364Z,3.70
2019-01-02T13:13:50.179Z,3.60
2019-01-02T13:16:31.014Z,3.60
2019-01-02T13:19:31.578Z,3.50
2019-01-02T13:22:56.616Z,3.50
2019-01-02T13:26:01.417Z,3.40
2019-01-02T13:29:10.809Z,3.40
2019-01-02T13:31:55.833Z,3.30
2019-01-02T13:34:51.696Z,3.30
2019-01-02T13:37:37.978Z,3.30
2019-01-02T13:40:59.073Z,3.30
2019-01-02T13:43:41.072Z,3.30
2019-01-02T13:46:33.005Z,3.20
2019-01-02T13:49:40.877Z,3.20
2019-01-02T13:52:10.519Z,3.20
2019-01-02T13:54:40.198Z,3.10
2019-01-02T13:57:09.963Z,3.00
2019-01-02T13:59:40.202Z,3.10
2019-01-02T14:02:10.064Z,3.00
2019-01-02T14:04:57.897Z,2.90
2019-01-02T14:07:20.337Z,2.90
2019-01-02T14:09:49.998Z,2.80
2019-01-02T14:12:21.036Z,2.70
2019-01-02T14:14:50.730Z,2.70
2019-01-02T14:17:20.456Z,2.70
2019-01-02T14:19:50.224Z,2.70
2019-01-02T14:22:25.694Z,2.80
2019-01-02T14:24:55.598Z,2.80
2019-01-02T14:27:25.224Z,2.80
2019-01-02T14:29:54.938Z,2.80
2019-01-02T14:32:24.609Z,2.80
2019-01-02T14:34:56.831Z,2.80
2019-01-02T14:37:26.479Z,2.70
2019-01-02T14:39:56.147Z,2.70
2019-01-02T14:42:25.781Z,2.70
2019-01-02T14:44:55.444Z,2.70
2019-01-02T14:47:25.086Z,2.70
2019-01-02T14:49:54.831Z,2.70
2019-01-02T14:52:24.438Z,2.70
2019-01-02T14:54:54.098Z,2.70
2019-01-02T14:57:23.816Z,2.70
2019-01-02T14:59:53.673Z,2.80
2019-01-02T15:02:23.344Z,2.80
2019-01-02T15:04:53.000Z,2.80
2019-01-02T15:07:23.923Z,2.90
2019-01-02T15:09:53.618Z,2.90
2019-01-02T15:12:24.471Z,3.00
2019-01-02T15:14:54.232Z,3.00
2019-01-02T15:17:25.171Z,3.00
2019-01-02T15:19:55.051Z,3.00
2019-01-02T15:22:24.685Z,3.10
2019-01-02T15:24:54.331Z,3.20
2019-01-02T15:27:23.998Z,3.10
2019-01-02T15:29:53.774Z,3.20
2019-01-02T15:32:25.904Z,3.10
2019-01-02T15:34:55.647Z,3.20
2019-01-02T15:37:25.318Z,3.20
2019-01-02T15:39:55.315Z,3.20
2019-01-02T15:42:24.917Z,3.20
2019-01-02T15:44:54.787Z,3.10
2019-01-02T15:47:24.452Z,3.10
2019-01-02T15:49:54.211Z,3.10
2019-01-02T15:52:23.921Z,3.10
2019-01-02T15:54:53.612Z,3.10
2019-01-02T15:57:23.239Z,3.10
2019-01-02T15:59:52.900Z,3.00
2019-01-02T16:02:22.653Z,3.10
2019-01-02T16:04:52.289Z,3.10
2019-01-02T16:07:22.004Z,3.10
2019-01-02T16:09:51.660Z,3.20
2019-01-02T16:12:21.332Z,3.20
2019-01-02T16:14:51.028Z,3.10
2019-01-02T16:17:22.111Z,3.10
2019-01-02T16:19:51.804Z,3.00
2019-01-02T16:22:21.458Z,2.90
2019-01-02T16:24:55.506Z,2.90
2019-01-02T16:27:24.277Z,2.90
2019-01-02T16:29:54.151Z,2.90
2019-01-02T16:32:24.065Z,2.90
2019-01-02T16:34:53.704Z,3.00
2019-01-02T16:37:25.922Z,3.00
2019-01-02T16:39:55.713Z,3.00
2019-01-02T16:42:28.055Z,3.00
2019-01-02T16:44:57.747Z,2.90
2019-01-02T16:47:27.430Z,2.80
2019-01-02T16:49:57.054Z,2.70
2019-01-02T16:52:28.790Z,2.70
2019-01-02T16:54:58.321Z,2.60
2019-01-02T16:57:38.738Z,2.60
2019-01-02T17:00:15.811Z,2.70
2019-01-02T17:02:45.730Z,2.70
2019-01-02T17:05:15.366Z,2.70
2019-01-02T17:07:45.305Z,2.60
2019-01-02T17:10:15.305Z,2.60
2019-01-02T17:12:44.951Z,2.50
2019-01-02T17:15:17.685Z,2.50
2019-01-02T17:17:47.860Z,2.50
2019-01-02T17:20:17.752Z,2.40
2019-01-02T17:22:54.156Z,2.30
2019-01-02T17:25:23.973Z,2.30
2019-01-02T17:27:53.967Z,2.30
2019-01-02T17:30:23.953Z,2.30
2019-01-02T17:33:00.607Z,2.30
2019-01-02T17:35:33.939Z,2.30
2019-01-02T17:38:06.426Z,2.30
2019-01-02T17:40:39.677Z,2.20
2019-01-02T17:43:10.793Z,2.20
2019-01-02T17:45:40.526Z,2.10
2019-01-02T17:48:15.778Z,2.00
2019-01-02T17:50:47.129Z,2.00
2019-01-02T17:53:19.937Z,2.00
2019-01-02T17:55:52.124Z,2.00
2019-01-02T17:58:21.823Z,2.00
2019-01-02T18:00:53.572Z,2.00
2019-01-02T18:03:26.961Z,2.00
2019-01-02T18:05:59.260Z,2.10
2019-01-02T18:08:29.192Z,2.00
2019-01-02T18:10:58.840Z,2.00
2019-01-02T18:13:28.567Z,2.00
2019-01-02T18:15:58.219Z,2.10
2019-01-02T18:18:27.903Z,2.20
2019-01-02T18:21:00.816Z,2.20
2019-01-02T18:23:30.471Z,2.20
2019-01-02T18:26:00.109Z,2.20
2019-01-02T18:28:29.751Z,2.10
2019-01-02T18:30:59.489Z,2.20
2019-01-02T18:33:29.192Z,2.10
2019-01-02T18:35:58.842Z,2.10
2019-01-02T18:38:28.532Z,2.10
2019-01-02T18:40:58.174Z,2.10
2019-01-02T18:43:27.898Z,2.10
2019-01-02T18:45:57.892Z,2.10
2019-01-02T18:48:27.594Z,2.00
2019-01-02T18:50:57.344Z,2.00
2019-01-02T18:53:27.049Z,2.00
2019-01-02T18:55:57.086Z,2.00
2019-01-02T18:58:26.740Z,2.10
2019-01-02T19:00:56.533Z,2.10
2019-01-02T19:03:27.453Z,2.10
2019-01-02T19:05:57.656Z,2.10
2019-01-02T19:08:27.872Z,2.10
2019-01-02T19:10:57.838Z,2.10
2019-01-02T19:13:27.694Z,2.10
2019-01-02T19:15:57.933Z,2.20
2019-01-02T19:18:28.389Z,2.20
2019-01-02T19:20:59.104Z,2.20
2019-01-02T19:23:33.374Z,2.10
2019-01-02T19:26:03.235Z,2.10
2019-01-02T19:28:33.380Z,2.00
2019-01-02T19:31:03.595Z,2.00
2019-01-02T19:33:33.282Z,1.90
2019-01-02T19:36:03.184Z,1.90
2019-01-02T19:38:33.157Z,1.90
2019-01-02T19:41:03.325Z,1.80
2019-01-02T19:43:33.112Z,1.70
2019-01-02T19:46:03.257Z,1.80
2019-01-02T19:48:33.646Z,1.80
2019-01-02T19:51:04.017Z,1.70
2019-01-02T19:53:33.882Z,1.70
2019-01-02T19:56:03.826Z,1.80
2019-01-02T19:58:33.774Z,1.80
2019-01-02T20:01:03.571Z,1.80
2019-01-02T20:03:33.713Z,1.90
2019-01-02T20:06:03.938Z,1.90
2019-01-02T20:08:33.789Z,1.80
2019-01-02T20:11:04.063Z,1.70
2019-01-02T20:13:33.712Z,1.70
2019-01-02T20:16:03.562Z,1.60
2019-01-02T20:18:33.386Z,1.60
2019-01-02T20:21:03.186Z,1.60
2019-01-02T20:23:32.805Z,1.60
2019-01-02T20:26:02.611Z,1.60
2019-01-02T20:28:32.363Z,1.70
2019-01-02T20:31:02.204Z,1.70
2019-01-02T20:33:31.916Z,1.70
2019-01-02T20:36:02.178Z,1.70
2019-01-02T20:38:40.603Z,1.70
2019-01-02T20:41:06.564Z,1.80
2019-01-02T20:43:40.142Z,1.80
2019-01-02T20:46:10.124Z,1.80
2019-01-02T20:48:41.834Z,1.80
2019-01-02T20:51:15.926Z,1.80
2019-01-02T20:53:45.764Z,1.70
2019-01-02T20:56:19.835Z,1.80
2019-01-02T20:58:54.961Z,1.70
2019-01-02T21:01:24.665Z,1.60
2019-01-02T21:03:54.415Z,1.70
2019-01-02T21:06:26.679Z,1.60
2019-01-02T21:08:56.371Z,1.50
2019-01-02T21:11:26.129Z,1.50
2019-01-02T21:13:55.854Z,1.40
2019-01-02T21:16:25.949Z,1.40
2019-01-02T21:18:57.755Z,1.40
2019-01-02T21:21:29.065Z,1.40
2019-01-02T21:24:01.520Z,1.40
2019-01-02T21:26:38.080Z,1.50
2019-01-02T21:29:13.457Z,1.40
2019-01-02T21:31:45.939Z,1.40
2019-01-02T21:34:15.834Z,1.40
2019-01-02T21:36:45.858Z,1.30
2019-01-02T21:39:15.758Z,1.20
2019-01-02T21:41:45.443Z,1.20
2019-01-02T21:44:16.543Z,1.10
2019-01-02T21:46:46.219Z,1.00
2019-01-02T21:49:19.034Z,1.10
2019-01-02T21:51:49.815Z,1.10
2019-01-02T21:54:20.622Z,1.10
2019-01-02T21:56:50.289Z,1.10
2019-01-02T21:59:19.968Z,1.10
2019-01-02T22:01:49.686Z,1.20
2019-01-02T22:04:20.402Z,1.20
2019-01-02T22:06:52.659Z,1.20
2019-01-02T22:09:25.310Z,1.20
2019-01-02T22:11:55.243Z,1.10
2019-01-02T22:14:24.950Z,1.20
2019-01-02T22:16:57.112Z,1.20
2019-01-02T22:19:26.767Z,1.20
2019-01-02T22:21:59.104Z,1.20
2019-01-02T22:24:28.701Z,1.10
2019-01-02T22:26:58.379Z,1.20
2019-01-02T22:29:28.181Z,1.10
2019-01-02T22:31:57.853Z,1.10
2019-01-02T22:34:27.575Z,1.10
2019-01-02T22:36:58.534Z,1.10
2019-01-02T22:39:28.596Z,1.10
2019-01-02T22:41:58.207Z,1.10
2019-01-02T22:44:27.992Z,1.10
2019-01-02T22:47:18.982Z,1.10
2019-01-02T22:49:48.732Z,1.00
2019-01-02T22:52:20.799Z,1.00
2019-01-02T22:54:52.998Z,1.00
2019-01-02T22:57:24.855Z,1.10
2019-01-02T22:59:55.609Z,1.10
2019-01-02T23:02:34.009Z,1.00
2019-01-02T23:05:24.234Z,1.00
2019-01-02T23:08:26.219Z,1.00
2019-01-02T23:11:23.970Z,1.00
2019-01-02T23:14:11.691Z,1.00
2019-01-02T23:17:04.095Z,0.90
2019-01-02T23:19:55.665Z,0.90
2019-01-02T23:23:04.363Z,0.80
2019-01-02T23:25:53.414Z,0.80
2019-01-02T23:28:41.275Z,0.80
2019-01-02T23:31:35.638Z,0.70
2019-01-02T23:34:22.917Z,0.70
2019-01-02T23:37:23.627Z,0.70
2019-01-02T23:40:12.295Z,0.60
2019-01-02T23:43:00.936Z,0.60
2019-01-02T23:46:04.226Z,0.50
2019-01-02T23:48:47.556Z,0.50
2019-01-02T23:51:27.297Z,0.50
2019-01-02T23:54:11.511Z,0.50
2019-01-02T23:57:04.059Z,0.50
2019-01-02T23:59:56.689Z,0.40
